sensor_id;sensor_type;location;lat;lon;timestamp;temperature;humidity
47162;DHT22;32921;53.256;8.198;2023-05-20T00:00:24;11.10;95.30
47162;DHT22;32921;53.256;8.198;2023-05-20T00:02:50;11.20;95.50
47162;DHT22;32921;53.256;8.198;2023-05-20T00:05:16;11.30;95.10
47162;DHT22;32921;53.256;8.198;2023-05-20T00:07:41;11.30;94.90
47162;DHT22;32921;53.256;8.198;2023-05-20T00:10:07;11.30;94.90
47162;DHT22;32921;53.256;8.198;2023-05-20T00:12:33;11.20;94.90
47162;DHT22;32921;53.256;8.198;2023-05-20T00:15:00;11.20;95.00
47162;DHT22;32921;53.256;8.198;2023-05-20T00:17:25;11.20;95.10
47162;DHT22;32921;53.256;8.198;2023-05-20T00:19:53;11.30;94.90
47162;DHT22;32921;53.256;8.198;2023-05-20T00:22:18;11.30;95.10
47162;DHT22;32921;53.256;8.198;2023-05-20T00:24:44;11.20;95.10
47162;DHT22;32921;53.256;8.198;2023-05-20T00:27:10;11.20;95.20
47162;DHT22;32921;53.256;8.198;2023-05-20T00:29:35;11.20;95.40
47162;DHT22;32921;53.256;8.198;2023-05-20T00:32:01;11.20;95.10
47162;DHT22;32921;53.256;8.198;2023-05-20T00:34:27;11.20;95.10
47162;DHT22;32921;53.256;8.198;2023-05-20T00:36:52;11.30;94.80
47162;DHT22;32921;53.256;8.198;2023-05-20T00:39:18;11.30;95.00
47162;DHT22;32921;53.256;8.198;2023-05-20T00:41:44;11.30;95.00
47162;DHT22;32921;53.256;8.198;2023-05-20T00:44:09;11.20;95.00
47162;DHT22;32921;53.256;8.198;2023-05-20T00:46:35;11.20;94.90
47162;DHT22;32921;53.256;8.198;2023-05-20T00:49:01;11.20;95.00
47162;DHT22;32921;53.256;8.198;2023-05-20T00:51:27;11.30;95.10
47162;DHT22;32921;53.256;8.198;2023-05-20T00:53:54;11.20;94.80
47162;DHT22;32921;53.256;8.198;2023-05-20T00:56:20;11.30;94.90
47162;DHT22;32921;53.256;8.198;2023-05-20T00:58:46;11.30;94.40
47162;DHT22;32921;53.256;8.198;2023-05-20T01:01:12;11.40;94.10
47162;DHT22;32921;53.256;8.198;2023-05-20T01:03:38;11.40;93.80
47162;DHT22;32921;53.256;8.198;2023-05-20T01:06:04;11.40;93.30
47162;DHT22;32921;53.256;8.198;2023-05-20T01:08:30;11.40;93.40
47162;DHT22;32921;53.256;8.198;2023-05-20T01:11:06;11.30;93.50
47162;DHT22;32921;53.256;8.198;2023-05-20T01:13:38;11.30;93.30
47162;DHT22;32921;53.256;8.198;2023-05-20T01:16:06;11.30;93.10
47162;DHT22;32921;53.256;8.198;2023-05-20T01:18:33;11.30;93.00
47162;DHT22;32921;53.256;8.198;2023-05-20T01:21:01;11.30;92.70
47162;DHT22;32921;53.256;8.198;2023-05-20T01:23:44;11.30;92.60
47162;DHT22;32921;53.256;8.198;2023-05-20T01:26:10;11.20;92.60
47162;DHT22;32921;53.256;8.198;2023-05-20T01:28:38;11.20;92.70
47162;DHT22;32921;53.256;8.198;2023-05-20T01:31:05;11.20;92.60
47162;DHT22;32921;53.256;8.198;2023-05-20T01:33:35;11.20;92.10
47162;DHT22;32921;53.256;8.198;2023-05-20T01:36:02;11.10;92.10
47162;DHT22;32921;53.256;8.198;2023-05-20T01:38:29;11.00;92.30
47162;DHT22;32921;53.256;8.198;2023-05-20T01:40:56;10.80;92.50
47162;DHT22;32921;53.256;8.198;2023-05-20T01:43:24;10.80;92.50
47162;DHT22;32921;53.256;8.198;2023-05-20T01:45:50;10.70;92.70
47162;DHT22;32921;53.256;8.198;2023-05-20T01:48:16;10.70;92.40
47162;DHT22;32921;53.256;8.198;2023-05-20T01:50:42;10.60;92.60
47162;DHT22;32921;53.256;8.198;2023-05-20T01:53:07;10.60;92.10
47162;DHT22;32921;53.256;8.198;2023-05-20T01:55:34;10.40;92.20
47162;DHT22;32921;53.256;8.198;2023-05-20T01:58:01;10.30;92.40
47162;DHT22;32921;53.256;8.198;2023-05-20T02:00:26;10.20;92.50
47162;DHT22;32921;53.256;8.198;2023-05-20T02:02:52;10.20;92.10
47162;DHT22;32921;53.256;8.198;2023-05-20T02:05:17;10.10;92.50
47162;DHT22;32921;53.256;8.198;2023-05-20T02:07:43;9.90;92.50
47162;DHT22;32921;53.256;8.198;2023-05-20T02:10:09;9.90;92.50
47162;DHT22;32921;53.256;8.198;2023-05-20T02:12:34;9.70;92.70
47162;DHT22;32921;53.256;8.198;2023-05-20T02:15:00;9.50;93.10
47162;DHT22;32921;53.256;8.198;2023-05-20T02:17:26;9.40;93.80
47162;DHT22;32921;53.256;8.198;2023-05-20T02:19:51;9.40;93.30
47162;DHT22;32921;53.256;8.198;2023-05-20T02:22:17;9.30;93.50
47162;DHT22;32921;53.256;8.198;2023-05-20T02:24:43;9.30;94.00
47162;DHT22;32921;53.256;8.198;2023-05-20T02:27:08;9.20;93.70
47162;DHT22;32921;53.256;8.198;2023-05-20T02:29:34;9.20;93.90
47162;DHT22;32921;53.256;8.198;2023-05-20T02:31:59;9.10;93.80
47162;DHT22;32921;53.256;8.198;2023-05-20T02:34:26;9.10;93.80
47162;DHT22;32921;53.256;8.198;2023-05-20T02:36:52;9.00;94.20
47162;DHT22;32921;53.256;8.198;2023-05-20T02:39:18;9.00;94.20
47162;DHT22;32921;53.256;8.198;2023-05-20T02:41:44;8.90;94.50
47162;DHT22;32921;53.256;8.198;2023-05-20T02:44:09;8.90;94.80
47162;DHT22;32921;53.256;8.198;2023-05-20T02:46:35;8.90;94.80
47162;DHT22;32921;53.256;8.198;2023-05-20T02:49:00;8.80;95.00
47162;DHT22;32921;53.256;8.198;2023-05-20T02:51:26;8.80;95.00
47162;DHT22;32921;53.256;8.198;2023-05-20T02:53:51;8.60;95.50
47162;DHT22;32921;53.256;8.198;2023-05-20T02:56:17;8.70;95.30
47162;DHT22;32921;53.256;8.198;2023-05-20T02:58:47;8.70;95.20
47162;DHT22;32921;53.256;8.198;2023-05-20T03:01:13;8.70;94.80
47162;DHT22;32921;53.256;8.198;2023-05-20T03:03:38;8.70;95.00
47162;DHT22;32921;53.256;8.198;2023-05-20T03:06:05;8.60;95.10
47162;DHT22;32921;53.256;8.198;2023-05-20T03:08:31;8.50;95.30
47162;DHT22;32921;53.256;8.198;2023-05-20T03:10:58;8.50;95.10
47162;DHT22;32921;53.256;8.198;2023-05-20T03:13:24;8.60;94.90
47162;DHT22;32921;53.256;8.198;2023-05-20T03:15:50;8.60;94.50
47162;DHT22;32921;53.256;8.198;2023-05-20T03:18:15;8.60;94.60
47162;DHT22;32921;53.256;8.198;2023-05-20T03:20:41;8.60;94.00
47162;DHT22;32921;53.256;8.198;2023-05-20T03:23:08;8.50;94.10
47162;DHT22;32921;53.256;8.198;2023-05-20T03:25:34;8.50;94.20
47162;DHT22;32921;53.256;8.198;2023-05-20T03:28:00;8.50;94.40
47162;DHT22;32921;53.256;8.198;2023-05-20T03:30:26;8.50;94.00
47162;DHT22;32921;53.256;8.198;2023-05-20T03:32:53;8.50;94.20
47162;DHT22;32921;53.256;8.198;2023-05-20T03:35:18;8.50;94.00
47162;DHT22;32921;53.256;8.198;2023-05-20T03:37:44;8.40;94.00
47162;DHT22;32921;53.256;8.198;2023-05-20T03:40:10;8.50;94.00
47162;DHT22;32921;53.256;8.198;2023-05-20T03:42:36;8.40;94.30
47162;DHT22;32921;53.256;8.198;2023-05-20T03:45:02;8.40;94.00
47162;DHT22;32921;53.256;8.198;2023-05-20T03:47:28;8.40;94.10
47162;DHT22;32921;53.256;8.198;2023-05-20T03:49:54;8.40;94.00
47162;DHT22;32921;53.256;8.198;2023-05-20T03:52:19;8.40;94.10
47162;DHT22;32921;53.256;8.198;2023-05-20T03:54:45;8.60;93.80
47162;DHT22;32921;53.256;8.198;2023-05-20T03:57:10;8.70;93.10
47162;DHT22;32921;53.256;8.198;2023-05-20T03:59:36;8.70;92.80
47162;DHT22;32921;53.256;8.198;2023-05-20T04:02:03;8.70;92.60
47162;DHT22;32921;53.256;8.198;2023-05-20T04:04:29;8.70;92.40
47162;DHT22;32921;53.256;8.198;2023-05-20T04:06:55;8.70;92.30
47162;DHT22;32921;53.256;8.198;2023-05-20T04:09:21;8.70;92.30
47162;DHT22;32921;53.256;8.198;2023-05-20T04:11:47;8.70;92.20
47162;DHT22;32921;53.256;8.198;2023-05-20T04:14:12;8.80;91.90
47162;DHT22;32921;53.256;8.198;2023-05-20T04:16:38;8.90;91.70
47162;DHT22;32921;53.256;8.198;2023-05-20T04:19:04;8.80;91.70
47162;DHT22;32921;53.256;8.198;2023-05-20T04:21:30;8.70;92.00
47162;DHT22;32921;53.256;8.198;2023-05-20T04:23:56;8.80;91.80
47162;DHT22;32921;53.256;8.198;2023-05-20T04:26:21;8.70;91.60
47162;DHT22;32921;53.256;8.198;2023-05-20T04:28:47;8.90;91.30
47162;DHT22;32921;53.256;8.198;2023-05-20T04:31:14;8.90;91.20
47162;DHT22;32921;53.256;8.198;2023-05-20T04:33:40;8.90;91.40
47162;DHT22;32921;53.256;8.198;2023-05-20T04:36:08;9.00;91.40
47162;DHT22;32921;53.256;8.198;2023-05-20T04:38:34;9.10;90.90
47162;DHT22;32921;53.256;8.198;2023-05-20T04:41:00;9.10;90.80
47162;DHT22;32921;53.256;8.198;2023-05-20T04:43:26;9.20;90.70
47162;DHT22;32921;53.256;8.198;2023-05-20T04:45:57;9.20;90.60
47162;DHT22;32921;53.256;8.198;2023-05-20T04:48:24;9.20;90.80
47162;DHT22;32921;53.256;8.198;2023-05-20T04:50:49;9.20;90.90
47162;DHT22;32921;53.256;8.198;2023-05-20T04:53:16;9.30;90.70
47162;DHT22;32921;53.256;8.198;2023-05-20T04:55:42;9.50;90.80
47162;DHT22;32921;53.256;8.198;2023-05-20T04:58:09;9.60;90.50
47162;DHT22;32921;53.256;8.198;2023-05-20T05:00:41;9.60;90.50
47162;DHT22;32921;53.256;8.198;2023-05-20T05:03:07;9.70;90.30
47162;DHT22;32921;53.256;8.198;2023-05-20T05:05:37;9.80;90.30
47162;DHT22;32921;53.256;8.198;2023-05-20T05:08:04;9.90;90.10
47162;DHT22;32921;53.256;8.198;2023-05-20T05:10:30;10.00;90.20
47162;DHT22;32921;53.256;8.198;2023-05-20T05:12:56;10.10;90.10
47162;DHT22;32921;53.256;8.198;2023-05-20T05:15:22;10.20;90.30
47162;DHT22;32921;53.256;8.198;2023-05-20T05:17:48;10.60;89.90
47162;DHT22;32921;53.256;8.198;2023-05-20T05:20:14;11.20;87.50
47162;DHT22;32921;53.256;8.198;2023-05-20T05:22:39;11.80;84.60
47162;DHT22;32921;53.256;8.198;2023-05-20T05:25:07;12.30;81.70
47162;DHT22;32921;53.256;8.198;2023-05-20T05:27:33;12.60;80.30
47162;DHT22;32921;53.256;8.198;2023-05-20T05:30:00;12.70;79.60
47162;DHT22;32921;53.256;8.198;2023-05-20T05:32:25;12.60;78.40
47162;DHT22;32921;53.256;8.198;2023-05-20T05:34:51;12.70;78.50
47162;DHT22;32921;53.256;8.198;2023-05-20T05:37:16;12.60;77.80
47162;DHT22;32921;53.256;8.198;2023-05-20T05:39:42;12.60;78.40
47162;DHT22;32921;53.256;8.198;2023-05-20T05:42:07;12.50;79.20
47162;DHT22;32921;53.256;8.198;2023-05-20T05:44:33;12.40;79.80
47162;DHT22;32921;53.256;8.198;2023-05-20T05:46:58;12.30;79.60
47162;DHT22;32921;53.256;8.198;2023-05-20T05:49:24;12.20;80.90
47162;DHT22;32921;53.256;8.198;2023-05-20T05:51:50;12.10;81.70
47162;DHT22;32921;53.256;8.198;2023-05-20T05:54:16;12.20;81.30
47162;DHT22;32921;53.256;8.198;2023-05-20T05:56:41;12.30;81.40
47162;DHT22;32921;53.256;8.198;2023-05-20T05:59:07;12.40;81.10
47162;DHT22;32921;53.256;8.198;2023-05-20T06:01:32;12.40;80.80
47162;DHT22;32921;53.256;8.198;2023-05-20T06:03:58;12.50;81.80
47162;DHT22;32921;53.256;8.198;2023-05-20T06:06:24;13.00;80.40
47162;DHT22;32921;53.256;8.198;2023-05-20T06:08:49;13.80;77.30
47162;DHT22;32921;53.256;8.198;2023-05-20T06:11:15;14.20;74.60
47162;DHT22;32921;53.256;8.198;2023-05-20T06:13:40;14.40;72.80
47162;DHT22;32921;53.256;8.198;2023-05-20T06:16:06;14.60;72.60
47162;DHT22;32921;53.256;8.198;2023-05-20T06:18:32;14.40;72.90
47162;DHT22;32921;53.256;8.198;2023-05-20T06:20:58;14.90;72.50
47162;DHT22;32921;53.256;8.198;2023-05-20T06:23:24;14.90;70.60
47162;DHT22;32921;53.256;8.198;2023-05-20T06:25:50;14.60;71.00
47162;DHT22;32921;53.256;8.198;2023-05-20T06:28:16;14.40;71.10
47162;DHT22;32921;53.256;8.198;2023-05-20T06:30:42;14.20;71.90
47162;DHT22;32921;53.256;8.198;2023-05-20T06:33:07;14.60;71.00
47162;DHT22;32921;53.256;8.198;2023-05-20T06:35:33;14.70;70.80
47162;DHT22;32921;53.256;8.198;2023-05-20T06:38:01;15.20;69.00
47162;DHT22;32921;53.256;8.198;2023-05-20T06:40:27;15.30;68.40
47162;DHT22;32921;53.256;8.198;2023-05-20T06:42:53;15.80;66.40
47162;DHT22;32921;53.256;8.198;2023-05-20T06:45:19;16.00;65.70
47162;DHT22;32921;53.256;8.198;2023-05-20T06:47:46;15.60;66.80
47162;DHT22;32921;53.256;8.198;2023-05-20T06:50:13;15.40;68.20
47162;DHT22;32921;53.256;8.198;2023-05-20T06:52:39;15.60;67.90
47162;DHT22;32921;53.256;8.198;2023-05-20T06:55:05;16.10;66.60
47162;DHT22;32921;53.256;8.198;2023-05-20T06:57:31;15.90;67.20
47162;DHT22;32921;53.256;8.198;2023-05-20T06:59:56;16.40;65.50
47162;DHT22;32921;53.256;8.198;2023-05-20T07:02:22;16.80;64.00
47162;DHT22;32921;53.256;8.198;2023-05-20T07:04:48;17.00;63.70
47162;DHT22;32921;53.256;8.198;2023-05-20T07:07:13;17.20;63.90
47162;DHT22;32921;53.256;8.198;2023-05-20T07:09:39;17.50;61.80
47162;DHT22;32921;53.256;8.198;2023-05-20T07:12:05;17.60;60.40
47162;DHT22;32921;53.256;8.198;2023-05-20T07:14:31;17.30;63.30
47162;DHT22;32921;53.256;8.198;2023-05-20T07:16:57;17.50;63.80
47162;DHT22;32921;53.256;8.198;2023-05-20T07:19:22;18.10;62.00
47162;DHT22;32921;53.256;8.198;2023-05-20T07:21:48;18.10;60.00
47162;DHT22;32921;53.256;8.198;2023-05-20T07:24:14;18.60;59.70
47162;DHT22;32921;53.256;8.198;2023-05-20T07:26:40;19.70;57.00
47162;DHT22;32921;53.256;8.198;2023-05-20T07:29:06;20.00;56.10
47162;DHT22;32921;53.256;8.198;2023-05-20T07:31:34;19.90;55.80
47162;DHT22;32921;53.256;8.198;2023-05-20T07:34:00;19.00;58.10
47162;DHT22;32921;53.256;8.198;2023-05-20T07:36:26;19.00;59.70
47162;DHT22;32921;53.256;8.198;2023-05-20T07:38:52;19.30;57.80
47162;DHT22;32921;53.256;8.198;2023-05-20T07:41:18;19.40;57.40
47162;DHT22;32921;53.256;8.198;2023-05-20T07:43:45;19.50;57.00
47162;DHT22;32921;53.256;8.198;2023-05-20T07:46:10;19.90;56.70
47162;DHT22;32921;53.256;8.198;2023-05-20T07:48:36;19.00;60.10
47162;DHT22;32921;53.256;8.198;2023-05-20T07:51:02;19.10;58.70
47162;DHT22;32921;53.256;8.198;2023-05-20T07:53:27;18.60;59.60
47162;DHT22;32921;53.256;8.198;2023-05-20T07:55:53;19.10;59.40
47162;DHT22;32921;53.256;8.198;2023-05-20T07:58:18;19.60;58.70
47162;DHT22;32921;53.256;8.198;2023-05-20T08:00:44;20.10;57.70
47162;DHT22;32921;53.256;8.198;2023-05-20T08:03:10;20.50;56.10
47162;DHT22;32921;53.256;8.198;2023-05-20T08:05:36;20.30;55.20
47162;DHT22;32921;53.256;8.198;2023-05-20T08:08:02;21.00;54.50
47162;DHT22;32921;53.256;8.198;2023-05-20T08:10:28;20.20;56.00
47162;DHT22;32921;53.256;8.198;2023-05-20T08:12:54;20.50;56.90
47162;DHT22;32921;53.256;8.198;2023-05-20T08:15:20;20.20;55.30
47162;DHT22;32921;53.256;8.198;2023-05-20T08:17:45;20.00;57.90
47162;DHT22;32921;53.256;8.198;2023-05-20T08:20:11;20.60;54.80
47162;DHT22;32921;53.256;8.198;2023-05-20T08:22:37;21.10;54.10
47162;DHT22;32921;53.256;8.198;2023-05-20T08:25:06;20.80;53.60
47162;DHT22;32921;53.256;8.198;2023-05-20T08:27:32;21.00;52.80
47162;DHT22;32921;53.256;8.198;2023-05-20T08:29:57;21.10;52.20
47162;DHT22;32921;53.256;8.198;2023-05-20T08:32:23;21.30;51.60
47162;DHT22;32921;53.256;8.198;2023-05-20T08:34:49;21.40;51.10
47162;DHT22;32921;53.256;8.198;2023-05-20T08:37:15;21.80;52.50
47162;DHT22;32921;53.256;8.198;2023-05-20T08:39:41;21.80;50.60
47162;DHT22;32921;53.256;8.198;2023-05-20T08:42:07;21.90;50.90
47162;DHT22;32921;53.256;8.198;2023-05-20T08:44:36;21.80;49.20
47162;DHT22;32921;53.256;8.198;2023-05-20T08:47:02;21.20;50.70
47162;DHT22;32921;53.256;8.198;2023-05-20T08:49:30;21.50;49.60
47162;DHT22;32921;53.256;8.198;2023-05-20T08:51:57;21.70;49.40
47162;DHT22;32921;53.256;8.198;2023-05-20T08:54:25;20.90;51.40
47162;DHT22;32921;53.256;8.198;2023-05-20T08:56:52;21.10;50.90
47162;DHT22;32921;53.256;8.198;2023-05-20T08:59:18;21.40;49.20
47162;DHT22;32921;53.256;8.198;2023-05-20T09:01:44;21.60;48.60
47162;DHT22;32921;53.256;8.198;2023-05-20T09:04:10;21.10;49.10
47162;DHT22;32921;53.256;8.198;2023-05-20T09:06:42;21.40;49.80
47162;DHT22;32921;53.256;8.198;2023-05-20T09:09:12;21.90;49.20
47162;DHT22;32921;53.256;8.198;2023-05-20T09:11:42;21.40;49.20
47162;DHT22;32921;53.256;8.198;2023-05-20T09:14:08;21.90;48.80
47162;DHT22;32921;53.256;8.198;2023-05-20T09:16:34;21.70;48.70
47162;DHT22;32921;53.256;8.198;2023-05-20T09:18:59;21.50;49.00
47162;DHT22;32921;53.256;8.198;2023-05-20T09:21:28;21.90;48.40
47162;DHT22;32921;53.256;8.198;2023-05-20T09:23:55;22.30;47.10
47162;DHT22;32921;53.256;8.198;2023-05-20T09:26:26;21.80;48.60
47162;DHT22;32921;53.256;8.198;2023-05-20T09:28:54;22.10;47.80
47162;DHT22;32921;53.256;8.198;2023-05-20T09:31:20;22.80;46.80
47162;DHT22;32921;53.256;8.198;2023-05-20T09:33:48;22.70;45.30
47162;DHT22;32921;53.256;8.198;2023-05-20T09:36:14;22.40;45.00
47162;DHT22;32921;53.256;8.198;2023-05-20T09:38:40;21.70;46.60
47162;DHT22;32921;53.256;8.198;2023-05-20T09:41:10;21.70;47.30
47162;DHT22;32921;53.256;8.198;2023-05-20T09:43:38;21.40;48.30
47162;DHT22;32921;53.256;8.198;2023-05-20T09:46:05;21.50;48.70
47162;DHT22;32921;53.256;8.198;2023-05-20T09:48:32;21.00;48.20
47162;DHT22;32921;53.256;8.198;2023-05-20T09:51:00;21.80;47.80
47162;DHT22;32921;53.256;8.198;2023-05-20T09:53:27;22.20;46.10
47162;DHT22;32921;53.256;8.198;2023-05-20T09:55:53;22.60;46.50
47162;DHT22;32921;53.256;8.198;2023-05-20T09:58:19;22.30;45.70
47162;DHT22;32921;53.256;8.198;2023-05-20T10:00:45;23.30;44.10
47162;DHT22;32921;53.256;8.198;2023-05-20T10:03:11;23.60;43.50
47162;DHT22;32921;53.256;8.198;2023-05-20T10:05:45;23.40;42.60
47162;DHT22;32921;53.256;8.198;2023-05-20T10:16:53;23.40;40.30
47162;DHT22;32921;53.256;8.198;2023-05-20T10:19:31;22.80;40.50
47162;DHT22;32921;53.256;8.198;2023-05-20T10:24:36;21.90;43.00
47162;DHT22;32921;53.256;8.198;2023-05-20T10:27:04;21.80;43.10
47162;DHT22;32921;53.256;8.198;2023-05-20T10:29:48;21.40;42.10
47162;DHT22;32921;53.256;8.198;2023-05-20T10:32:26;21.60;41.80
47162;DHT22;32921;53.256;8.198;2023-05-20T10:35:01;21.80;42.30
47162;DHT22;32921;53.256;8.198;2023-05-20T10:37:31;21.20;42.10
47162;DHT22;32921;53.256;8.198;2023-05-20T10:40:07;20.90;44.00
47162;DHT22;32921;53.256;8.198;2023-05-20T10:42:33;21.70;41.60
47162;DHT22;32921;53.256;8.198;2023-05-20T10:44:58;23.10;41.50
47162;DHT22;32921;53.256;8.198;2023-05-20T10:47:24;23.60;38.90
47162;DHT22;32921;53.256;8.198;2023-05-20T10:49:50;22.70;40.40
47162;DHT22;32921;53.256;8.198;2023-05-20T10:52:16;22.40;39.80
47162;DHT22;32921;53.256;8.198;2023-05-20T10:54:47;22.70;39.80
47162;DHT22;32921;53.256;8.198;2023-05-20T10:57:19;22.40;39.00
47162;DHT22;32921;53.256;8.198;2023-05-20T10:59:45;22.70;40.90
47162;DHT22;32921;53.256;8.198;2023-05-20T11:02:14;23.60;36.80
47162;DHT22;32921;53.256;8.198;2023-05-20T11:04:44;24.40;35.60
47162;DHT22;32921;53.256;8.198;2023-05-20T11:07:10;24.10;35.60
47162;DHT22;32921;53.256;8.198;2023-05-20T11:09:36;22.80;37.20
47162;DHT22;32921;53.256;8.198;2023-05-20T11:12:01;21.50;41.30
47162;DHT22;32921;53.256;8.198;2023-05-20T11:14:28;21.60;41.90
47162;DHT22;32921;53.256;8.198;2023-05-20T11:16:57;21.70;40.50
47162;DHT22;32921;53.256;8.198;2023-05-20T11:19:24;21.40;41.90
47162;DHT22;32921;53.256;8.198;2023-05-20T11:21:51;21.60;41.60
47162;DHT22;32921;53.256;8.198;2023-05-20T11:24:26;22.40;40.50
47162;DHT22;32921;53.256;8.198;2023-05-20T11:26:54;21.80;41.10
47162;DHT22;32921;53.256;8.198;2023-05-20T11:29:20;21.30;43.00
47162;DHT22;32921;53.256;8.198;2023-05-20T11:31:48;22.10;40.80
47162;DHT22;32921;53.256;8.198;2023-05-20T11:34:14;21.90;41.50
47162;DHT22;32921;53.256;8.198;2023-05-20T11:36:43;23.40;39.30
47162;DHT22;32921;53.256;8.198;2023-05-20T11:39:11;24.60;38.70
47162;DHT22;32921;53.256;8.198;2023-05-20T11:41:38;23.50;37.00
47162;DHT22;32921;53.256;8.198;2023-05-20T11:44:04;23.30;39.70
47162;DHT22;32921;53.256;8.198;2023-05-20T11:46:44;24.80;36.90
47162;DHT22;32921;53.256;8.198;2023-05-20T11:49:12;22.80;40.20
47162;DHT22;32921;53.256;8.198;2023-05-20T11:51:38;21.60;42.40
47162;DHT22;32921;53.256;8.198;2023-05-20T11:54:06;21.50;42.20
47162;DHT22;32921;53.256;8.198;2023-05-20T11:56:33;20.90;43.20
47162;DHT22;32921;53.256;8.198;2023-05-20T11:59:02;20.60;44.90
47162;DHT22;32921;53.256;8.198;2023-05-20T12:01:36;21.00;43.90
47162;DHT22;32921;53.256;8.198;2023-05-20T12:04:05;21.20;43.60
47162;DHT22;32921;53.256;8.198;2023-05-20T12:06:31;20.80;45.20
47162;DHT22;32921;53.256;8.198;2023-05-20T12:09:00;21.40;44.10
47162;DHT22;32921;53.256;8.198;2023-05-20T12:11:28;21.20;44.20
47162;DHT22;32921;53.256;8.198;2023-05-20T12:13:53;21.10;43.50
47162;DHT22;32921;53.256;8.198;2023-05-20T12:16:19;21.40;43.80
47162;DHT22;32921;53.256;8.198;2023-05-20T12:18:44;22.70;43.20
47162;DHT22;32921;53.256;8.198;2023-05-20T12:21:10;24.40;39.20
47162;DHT22;32921;53.256;8.198;2023-05-20T12:23:35;23.00;40.80
47162;DHT22;32921;53.256;8.198;2023-05-20T12:26:01;21.50;44.10
47162;DHT22;32921;53.256;8.198;2023-05-20T12:28:27;21.20;44.70
47162;DHT22;32921;53.256;8.198;2023-05-20T12:30:52;21.50;44.90
47162;DHT22;32921;53.256;8.198;2023-05-20T12:33:18;21.00;45.10
47162;DHT22;32921;53.256;8.198;2023-05-20T12:35:44;20.70;45.50
47162;DHT22;32921;53.256;8.198;2023-05-20T12:38:11;19.70;48.60
47162;DHT22;32921;53.256;8.198;2023-05-20T12:40:37;19.60;49.80
47162;DHT22;32921;53.256;8.198;2023-05-20T12:43:03;19.60;49.70
47162;DHT22;32921;53.256;8.198;2023-05-20T12:45:29;19.40;50.20
47162;DHT22;32921;53.256;8.198;2023-05-20T12:47:55;19.10;51.40
47162;DHT22;32921;53.256;8.198;2023-05-20T12:50:22;19.60;50.20
47162;DHT22;32921;53.256;8.198;2023-05-20T12:52:48;19.60;51.20
47162;DHT22;32921;53.256;8.198;2023-05-20T12:55:14;19.00;50.80
47162;DHT22;32921;53.256;8.198;2023-05-20T12:57:40;18.80;51.60
47162;DHT22;32921;53.256;8.198;2023-05-20T13:00:07;19.10;51.40
47162;DHT22;32921;53.256;8.198;2023-05-20T13:02:34;19.40;50.30
47162;DHT22;32921;53.256;8.198;2023-05-20T13:05:00;19.60;49.80
47162;DHT22;32921;53.256;8.198;2023-05-20T13:07:26;19.80;49.30
47162;DHT22;32921;53.256;8.198;2023-05-20T13:09:52;20.30;47.90
47162;DHT22;32921;53.256;8.198;2023-05-20T13:12:17;20.30;48.00
47162;DHT22;32921;53.256;8.198;2023-05-20T13:14:43;20.20;47.60
47162;DHT22;32921;53.256;8.198;2023-05-20T13:17:09;19.60;48.40
47162;DHT22;32921;53.256;8.198;2023-05-20T13:19:35;19.60;49.80
47162;DHT22;32921;53.256;8.198;2023-05-20T13:22:02;19.70;48.60
47162;DHT22;32921;53.256;8.198;2023-05-20T13:24:28;19.40;49.80
47162;DHT22;32921;53.256;8.198;2023-05-20T13:26:53;20.00;49.10
47162;DHT22;32921;53.256;8.198;2023-05-20T13:29:19;20.00;48.80
47162;DHT22;32921;53.256;8.198;2023-05-20T13:31:46;20.30;47.70
47162;DHT22;32921;53.256;8.198;2023-05-20T13:34:11;20.00;48.30
47162;DHT22;32921;53.256;8.198;2023-05-20T13:36:37;19.20;49.60
47162;DHT22;32921;53.256;8.198;2023-05-20T13:39:03;19.10;50.00
47162;DHT22;32921;53.256;8.198;2023-05-20T13:41:28;19.20;49.80
47162;DHT22;32921;53.256;8.198;2023-05-20T13:43:55;19.40;50.30
47162;DHT22;32921;53.256;8.198;2023-05-20T13:46:20;19.10;50.40
47162;DHT22;32921;53.256;8.198;2023-05-20T13:48:46;19.20;52.20
47162;DHT22;32921;53.256;8.198;2023-05-20T13:51:12;18.50;52.20
47162;DHT22;32921;53.256;8.198;2023-05-20T13:53:38;18.20;54.00
47162;DHT22;32921;53.256;8.198;2023-05-20T13:56:04;18.60;52.40
47162;DHT22;32921;53.256;8.198;2023-05-20T13:58:30;18.90;52.60
47162;DHT22;32921;53.256;8.198;2023-05-20T14:00:55;18.60;51.90
47162;DHT22;32921;53.256;8.198;2023-05-20T14:03:21;18.50;52.60
47162;DHT22;32921;53.256;8.198;2023-05-20T14:05:47;18.70;51.90
47162;DHT22;32921;53.256;8.198;2023-05-20T14:08:12;18.80;52.50
47162;DHT22;32921;53.256;8.198;2023-05-20T14:10:38;19.00;52.90
47162;DHT22;32921;53.256;8.198;2023-05-20T14:13:04;19.60;51.00
47162;DHT22;32921;53.256;8.198;2023-05-20T14:15:30;20.60;47.70
47162;DHT22;32921;53.256;8.198;2023-05-20T14:17:56;20.30;49.00
47162;DHT22;32921;53.256;8.198;2023-05-20T14:20:23;20.70;48.30
47162;DHT22;32921;53.256;8.198;2023-05-20T14:22:49;21.40;46.60
47162;DHT22;32921;53.256;8.198;2023-05-20T14:25:15;21.40;46.60
47162;DHT22;32921;53.256;8.198;2023-05-20T14:27:40;21.80;46.20
47162;DHT22;32921;53.256;8.198;2023-05-20T14:30:06;21.10;46.90
47162;DHT22;32921;53.256;8.198;2023-05-20T14:32:32;20.90;47.60
47162;DHT22;32921;53.256;8.198;2023-05-20T14:34:57;20.80;47.60
47162;DHT22;32921;53.256;8.198;2023-05-20T14:37:24;19.70;48.80
47162;DHT22;32921;53.256;8.198;2023-05-20T14:39:51;20.00;49.60
47162;DHT22;32921;53.256;8.198;2023-05-20T14:42:17;20.40;48.60
47162;DHT22;32921;53.256;8.198;2023-05-20T14:44:42;20.50;48.00
47162;DHT22;32921;53.256;8.198;2023-05-20T14:47:08;20.40;48.50
47162;DHT22;32921;53.256;8.198;2023-05-20T14:49:35;20.30;48.60
47162;DHT22;32921;53.256;8.198;2023-05-20T14:52:04;20.60;48.50
47162;DHT22;32921;53.256;8.198;2023-05-20T14:54:29;21.30;47.50
47162;DHT22;32921;53.256;8.198;2023-05-20T14:56:55;21.20;45.90
47162;DHT22;32921;53.256;8.198;2023-05-20T14:59:20;20.30;49.40
47162;DHT22;32921;53.256;8.198;2023-05-20T15:01:46;20.90;47.90
47162;DHT22;32921;53.256;8.198;2023-05-20T15:04:12;20.60;49.00
47162;DHT22;32921;53.256;8.198;2023-05-20T15:06:37;20.00;50.80
47162;DHT22;32921;53.256;8.198;2023-05-20T15:09:04;20.50;49.40
47162;DHT22;32921;53.256;8.198;2023-05-20T15:11:30;20.00;49.20
47162;DHT22;32921;53.256;8.198;2023-05-20T15:13:56;20.00;49.60
47162;DHT22;32921;53.256;8.198;2023-05-20T15:16:22;20.00;49.90
47162;DHT22;32921;53.256;8.198;2023-05-20T15:18:49;19.40;52.30
47162;DHT22;32921;53.256;8.198;2023-05-20T15:21:15;19.10;53.30
47162;DHT22;32921;53.256;8.198;2023-05-20T15:23:40;19.00;54.10
47162;DHT22;32921;53.256;8.198;2023-05-20T15:26:06;19.70;53.80
47162;DHT22;32921;53.256;8.198;2023-05-20T15:28:32;19.20;53.20
47162;DHT22;32921;53.256;8.198;2023-05-20T15:30:57;19.90;52.10
47162;DHT22;32921;53.256;8.198;2023-05-20T15:33:23;19.70;51.00
47162;DHT22;32921;53.256;8.198;2023-05-20T15:35:48;20.50;49.90
47162;DHT22;32921;53.256;8.198;2023-05-20T15:38:14;22.60;45.30
47162;DHT22;32921;53.256;8.198;2023-05-20T15:40:40;21.90;45.50